Time;durP1;ratioP1;P1;durP2;ratioP2;P2;SDS_P1;SDS_P2;PMS_P1;PMS_P2;Temp;Humidity;BMP_temperature;BMP_pressure;BME280_temperature;BME280_humidity;BME280_pressure;Samples;Min_cycle;Max_cycle;Signal;HPM_P1;HPM_P2
2023/03/26 00:00:49;;;;;;;0.57;0.10;;;10.40;99.90;;;;;;5033665;28;20488;-74
2023/03/26 00:03:17;;;;;;;1.88;0.10;;;10.30;99.90;;;;;;5030836;28;20037;-75
2023/03/26 00:05:46;;;;;;;2.90;0.28;;;10.20;99.90;;;;;;5031819;28;21692;-78
2023/03/26 00:08:14;;;;;;;0.50;0.25;;;10.20;99.90;;;;;;5025151;28;20041;-73
2023/03/26 00:10:41;;;;;;;0.75;0.10;;;10.30;99.90;;;;;;5012142;28;20045;-77
2023/03/26 00:13:08;;;;;;;0.35;0.20;;;10.30;99.90;;;;;;5034048;28;20497;-76
2023/03/26 00:15:36;;;;;;;0.43;0.10;;;10.30;99.90;;;;;;5022217;28;21205;-76
2023/03/26 00:18:02;;;;;;;0.40;0.20;;;10.30;99.90;;;;;;5020380;28;20020;-74
2023/03/26 00:20:31;;;;;;;0.35;0.13;;;10.30;99.90;;;;;;5022153;28;20075;-74
2023/03/26 00:23:00;;;;;;;0.35;0.20;;;10.30;99.90;;;;;;5029378;28;20048;-74
2023/03/26 00:25:26;;;;;;;0.38;0.10;;;10.40;99.90;;;;;;5030976;28;20044;-76
2023/03/26 00:27:52;;;;;;;0.47;0.10;;;10.30;99.80;;;;;;5026034;28;20056;-74
2023/03/26 00:30:19;;;;;;;0.60;0.20;;;10.30;99.90;;;;;;5026560;28;20041;-74
2023/03/26 00:32:45;;;;;;;0.25;0.10;;;10.20;99.90;;;;;;5028207;28;20361;-73
2023/03/26 00:35:11;;;;;;;1.10;0.20;;;10.10;99.90;;;;;;5026407;28;20047;-72
2023/03/26 00:37:41;;;;;;;0.98;0.30;;;10.20;99.90;;;;;;5029640;28;20094;-74
2023/03/26 00:40:09;;;;;;;0.85;0.20;;;10.20;99.90;;;;;;5030282;28;20056;-73
2023/03/26 00:42:36;;;;;;;0.55;0.20;;;10.20;99.90;;;;;;5031391;28;20033;-66
2023/03/26 00:45:06;;;;;;;0.17;0.17;;;10.10;99.90;;;;;;5027264;28;20045;-66
2023/03/26 00:47:32;;;;;;;0.25;0.10;;;10.00;99.90;;;;;;5029929;28;20522;-76
2023/03/26 00:49:58;;;;;;;0.20;0.10;;;10.10;99.90;;;;;;5030516;28;20053;-67
2023/03/26 00:52:27;;;;;;;0.10;0.10;;;10.20;99.90;;;;;;5028291;28;20052;-66
2023/03/26 00:54:53;;;;;;;0.70;0.13;;;10.20;99.90;;;;;;5012756;28;20110;-65
2023/03/26 00:57:20;;;;;;;0.10;0.10;;;10.20;99.90;;;;;;5025354;28;20128;-74
2023/03/26 00:59:49;;;;;;;0.20;0.20;;;10.20;99.90;;;;;;5024498;28;20140;-74
2023/03/26 01:02:19;;;;;;;1.45;0.20;;;10.20;99.90;;;;;;5027279;28;20122;-74
2023/03/26 01:04:57;;;;;;;0.50;0.00;;;10.10;99.90;;;;;;5028953;28;20366;-72
2023/03/26 01:07:27;;;;;;;0.20;0.10;;;10.10;99.90;;;;;;5029986;28;20041;-74
2023/03/26 01:09:56;;;;;;;0.45;0.22;;;10.10;99.90;;;;;;5025221;28;20061;-74
2023/03/26 01:12:25;;;;;;;0.20;0.17;;;10.00;99.90;;;;;;5025664;28;20396;-73
2023/03/26 01:14:53;;;;;;;1.98;0.22;;;10.10;99.90;;;;;;5029905;28;20041;-73
2023/03/26 01:17:20;;;;;;;0.47;0.10;;;10.10;99.90;;;;;;5030586;28;20038;-73
2023/03/26 01:19:55;;;;;;;0.93;0.20;;;10.10;99.90;;;;;;5030955;28;20132;-74
2023/03/26 01:22:26;;;;;;;0.20;0.20;;;10.10;99.90;;;;;;5028734;28;20057;-73
2023/03/26 01:24:52;;;;;;;0.77;0.40;;;10.00;99.90;;;;;;5027404;28;20094;-73
2023/03/26 01:27:34;;;;;;;0.20;0.20;;;10.10;99.90;;;;;;5006203;28;20451;-73
2023/03/26 01:30:03;;;;;;;0.93;0.15;;;10.20;99.90;;;;;;5023087;28;20128;-73
2023/03/26 01:33:02;;;;;;;1.65;0.17;;;10.20;99.90;;;;;;5019570;28;20056;-73
2023/03/26 01:35:39;;;;;;;0.75;0.10;;;10.30;99.90;;;;;;5027557;28;20041;-73
2023/03/26 01:38:11;;;;;;;0.38;0.10;;;10.30;99.90;;;;;;5032377;28;20064;-73
2023/03/26 01:40:48;;;;;;;1.55;0.25;;;10.30;99.80;;;;;;5026368;28;20167;-73
2023/03/26 01:43:37;;;;;;;0.05;0.05;;;10.30;99.70;;;;;;5026196;28;20328;-74
2023/03/26 01:46:06;;;;;;;0.60;0.50;;;10.40;99.70;;;;;;5028361;28;20095;-74
2023/03/26 01:48:41;;;;;;;0.70;0.20;;;10.40;99.80;;;;;;5027611;28;20901;-72
2023/03/26 01:51:09;;;;;;;0.63;0.10;;;10.30;99.70;;;;;;5030933;28;20673;-73
2023/03/26 01:53:42;;;;;;;2.53;0.28;;;10.30;99.90;;;;;;5036703;28;20038;-74
2023/03/26 01:56:36;;;;;;;0.17;0.10;;;10.30;99.80;;;;;;5035808;28;20041;-66
2023/03/26 01:59:10;;;;;;;0.30;0.10;;;10.40;99.90;;;;;;5030450;28;20036;-67
2023/03/26 02:01:53;;;;;;;0.55;0.30;;;10.50;99.60;;;;;;5028207;28;20049;-67
2023/03/26 02:04:51;;;;;;;1.17;0.30;;;10.60;99.50;;;;;;5032721;28;20708;-67
2023/03/26 02:07:27;;;;;;;0.60;0.10;;;10.60;99.40;;;;;;5036657;28;20054;-67
2023/03/26 02:10:10;;;;;;;0.60;0.30;;;10.60;99.60;;;;;;5035289;28;20044;-67
2023/03/26 02:12:36;;;;;;;0.43;0.30;;;10.50;99.60;;;;;;5030757;28;20041;-67
2023/03/26 02:15:02;;;;;;;0.20;0.20;;;10.50;99.60;;;;;;5038554;28;20032;-67
2023/03/26 02:17:31;;;;;;;0.30;0.20;;;10.50;99.90;;;;;;5033293;28;20135;-67
2023/03/26 02:19:57;;;;;;;0.43;0.35;;;10.50;99.80;;;;;;5030764;28;20021;-67
2023/03/26 02:22:28;;;;;;;0.65;0.13;;;10.50;99.80;;;;;;5031390;28;20060;-67
2023/03/26 02:24:54;;;;;;;0.93;0.20;;;10.40;99.50;;;;;;5040929;28;20135;-67
2023/03/26 02:27:20;;;;;;;0.50;0.20;;;10.40;99.60;;;;;;5034868;28;20033;-67
2023/03/26 02:29:46;;;;;;;0.47;0.17;;;10.30;99.90;;;;;;5025244;28;20120;-67
2023/03/26 02:32:12;;;;;;;0.30;0.28;;;10.30;99.90;;;;;;5037679;28;20206;-66
2023/03/26 02:34:41;;;;;;;0.65;0.10;;;10.20;99.90;;;;;;5018162;28;20072;-74
2023/03/26 02:37:07;;;;;;;0.10;0.10;;;10.20;99.90;;;;;;5037301;28;20037;-74
2023/03/26 02:39:34;;;;;;;2.50;0.30;;;10.20;99.90;;;;;;5033510;28;20091;-73
2023/03/26 02:41:59;;;;;;;0.20;0.20;;;10.10;99.90;;;;;;5031835;28;20082;-73
2023/03/26 02:44:26;;;;;;;0.43;0.20;;;10.10;99.90;;;;;;5039154;28;20037;-74
2023/03/26 02:46:51;;;;;;;0.68;0.25;;;10.20;99.90;;;;;;5037623;28;20025;-73
2023/03/26 02:49:17;;;;;;;0.20;0.20;;;10.30;99.90;;;;;;5038157;28;20134;-73
2023/03/26 02:51:43;;;;;;;1.88;0.50;;;10.30;99.90;;;;;;5034832;28;20021;-74
2023/03/26 02:54:08;;;;;;;0.57;0.30;;;10.40;99.90;;;;;;5034724;28;20884;-73
2023/03/26 02:56:34;;;;;;;0.60;0.38;;;10.30;99.90;;;;;;5033928;28;20082;-74
2023/03/26 02:59:00;;;;;;;1.50;0.50;;;10.30;99.90;;;;;;5034929;28;20029;-73
2023/03/26 03:01:29;;;;;;;0.63;0.22;;;10.20;99.90;;;;;;5034299;28;20037;-73
2023/03/26 03:03:55;;;;;;;1.00;0.30;;;10.10;99.90;;;;;;5027675;28;20152;-73
2023/03/26 03:06:21;;;;;;;0.20;0.10;;;10.10;99.90;;;;;;5037277;28;20028;-73
2023/03/26 03:08:46;;;;;;;0.40;0.20;;;10.10;99.90;;;;;;5033594;28;20115;-74
2023/03/26 03:11:15;;;;;;;0.50;0.20;;;10.00;99.90;;;;;;5033877;28;20067;-73
2023/03/26 03:13:41;;;;;;;2.20;0.30;;;10.10;99.90;;;;;;5034327;28;20024;-67
2023/03/26 03:16:07;;;;;;;0.35;0.15;;;10.00;99.90;;;;;;5033469;28;20056;-67
2023/03/26 03:18:33;;;;;;;1.48;0.50;;;10.00;99.90;;;;;;5033804;28;20029;-67
2023/03/26 03:20:59;;;;;;;0.52;0.40;;;10.00;99.90;;;;;;5036976;28;20025;-67
2023/03/26 03:23:25;;;;;;;0.70;0.28;;;10.00;99.90;;;;;;5032112;28;20044;-67
2023/03/26 03:25:51;;;;;;;1.42;0.70;;;10.00;99.90;;;;;;5035612;28;20155;-67
2023/03/26 03:28:18;;;;;;;1.77;0.75;;;9.90;99.90;;;;;;5030115;28;21928;-67
2023/03/26 03:30:44;;;;;;;2.13;0.93;;;9.90;99.90;;;;;;5034648;28;20094;-74
2023/03/26 03:33:11;;;;;;;0.65;0.50;;;9.90;99.90;;;;;;5033912;28;20033;-74
2023/03/26 03:35:38;;;;;;;1.17;0.90;;;9.80;99.90;;;;;;5040015;28;20025;-73
2023/03/26 03:38:04;;;;;;;1.42;0.75;;;9.80;99.90;;;;;;5037817;28;20116;-73
2023/03/26 03:40:30;;;;;;;3.60;0.63;;;9.80;99.90;;;;;;5015481;28;20526;-74
2023/03/26 03:42:56;;;;;;;0.40;0.30;;;9.80;99.90;;;;;;5033082;28;20029;-74
2023/03/26 03:45:21;;;;;;;1.25;0.70;;;9.90;99.90;;;;;;5032297;28;20047;-74
2023/03/26 03:47:47;;;;;;;0.93;0.90;;;9.90;99.90;;;;;;5032857;28;20111;-74
2023/03/26 03:50:13;;;;;;;1.40;0.60;;;9.80;99.90;;;;;;5027824;28;20949;-67
2023/03/26 03:52:39;;;;;;;0.63;0.40;;;9.70;99.90;;;;;;5038119;28;20115;-67
2023/03/26 03:55:05;;;;;;;1.38;0.38;;;9.70;99.90;;;;;;5031504;28;20024;-67
2023/03/26 03:57:32;;;;;;;0.20;0.20;;;9.60;99.90;;;;;;5036903;28;20574;-67
2023/03/26 03:59:58;;;;;;;1.35;0.70;;;9.60;99.90;;;;;;5030641;28;20743;-67
2023/03/26 04:02:33;;;;;;;0.63;0.30;;;9.60;99.90;;;;;;5029903;28;21879;-67
2023/03/26 04:05:00;;;;;;;1.20;0.60;;;9.60;99.90;;;;;;5035212;28;20381;-67
2023/03/26 04:07:26;;;;;;;1.50;0.30;;;9.70;99.90;;;;;;5036861;28;20037;-67
2023/03/26 04:09:52;;;;;;;2.47;0.60;;;9.60;99.90;;;;;;5026964;28;20057;-66
2023/03/26 04:12:18;;;;;;;0.77;0.40;;;9.70;99.90;;;;;;5034836;28;20542;-67
2023/03/26 04:14:43;;;;;;;1.35;0.70;;;9.70;99.90;;;;;;5036482;28;20043;-67
2023/03/26 04:17:12;;;;;;;0.90;0.50;;;9.80;99.90;;;;;;5030661;28;20039;-67
2023/03/26 04:19:38;;;;;;;0.50;0.35;;;9.70;99.90;;;;;;5034449;28;20124;-67
2023/03/26 04:22:05;;;;;;;1.23;0.65;;;9.80;99.90;;;;;;5025711;28;20397;-67
2023/03/26 04:24:37;;;;;;;0.85;0.40;;;9.80;99.90;;;;;;5016684;28;20482;-67
2023/03/26 04:27:05;;;;;;;;;;;9.70;99.90;;;;;;4992160;28;20114;-67
2023/03/26 04:29:41;;;;;;;1.00;0.55;;;9.70;99.90;;;;;;5012005;28;20472;-67
2023/03/26 04:32:14;;;;;;;1.10;0.50;;;9.70;99.90;;;;;;5018190;28;20113;-67
2023/03/26 04:34:44;;;;;;;1.17;0.35;;;9.70;99.90;;;;;;5005897;28;20037;-66
2023/03/26 04:37:26;;;;;;;0.65;0.45;;;9.60;99.90;;;;;;5009827;28;20037;-67
2023/03/26 04:39:53;;;;;;;1.08;0.30;;;9.60;99.90;;;;;;5017095;28;20040;-67
2023/03/26 04:42:18;;;;;;;1.63;0.40;;;9.70;99.90;;;;;;5017594;28;20409;-66
2023/03/26 04:44:49;;;;;;;2.08;0.38;;;9.80;99.90;;;;;;5019335;28;20045;-66
2023/03/26 04:47:16;;;;;;;0.38;0.22;;;9.80;99.90;;;;;;5017852;28;20570;-66
2023/03/26 04:49:43;;;;;;;0.70;0.20;;;9.80;99.90;;;;;;5018920;28;20084;-66
2023/03/26 04:52:12;;;;;;;0.40;0.28;;;9.80;99.90;;;;;;5019497;28;20091;-69
2023/03/26 04:54:38;;;;;;;0.55;0.30;;;9.90;99.90;;;;;;5020966;28;20041;-67
2023/03/26 04:57:15;;;;;;;0.85;0.20;;;10.00;99.90;;;;;;5017629;28;20042;-66
2023/03/26 04:59:41;;;;;;;1.77;0.20;;;10.00;99.90;;;;;;5015458;28;20077;-67
2023/03/26 05:02:10;;;;;;;1.27;0.20;;;10.00;99.90;;;;;;5015338;28;20115;-67
2023/03/26 05:04:38;;;;;;;0.30;0.30;;;10.00;99.90;;;;;;5024545;28;20036;-66
2023/03/26 05:07:04;;;;;;;0.38;0.22;;;10.00;99.90;;;;;;5018501;28;20034;-72
2023/03/26 05:09:30;;;;;;;1.30;0.30;;;10.00;99.90;;;;;;5009576;28;20037;-73
2023/03/26 05:11:57;;;;;;;0.50;0.30;;;10.10;99.90;;;;;;5017648;28;20044;-73
2023/03/26 05:14:23;;;;;;;0.80;0.28;;;10.10;99.90;;;;;;5027060;28;20037;-74
2023/03/26 05:16:52;;;;;;;0.30;0.10;;;10.10;99.90;;;;;;5021485;28;20668;-73
2023/03/26 05:19:18;;;;;;;1.25;0.30;;;10.20;99.90;;;;;;5019156;28;20029;-74
2023/03/26 05:21:43;;;;;;;1.75;0.10;;;10.30;99.90;;;;;;5037528;28;20466;-73
2023/03/26 05:24:09;;;;;;;1.35;0.30;;;10.30;99.90;;;;;;5023081;28;20045;-74
2023/03/26 05:26:35;;;;;;;1.60;0.30;;;10.40;99.90;;;;;;5031126;28;20029;-74
2023/03/26 05:29:01;;;;;;;0.73;0.20;;;10.50;99.90;;;;;;5040003;28;20040;-75
2023/03/26 05:31:29;;;;;;;1.10;0.20;;;10.60;99.90;;;;;;5033402;28;20047;-74
2023/03/26 05:33:56;;;;;;;0.45;0.20;;;10.80;99.90;;;;;;5041440;28;20048;-73
2023/03/26 05:36:22;;;;;;;1.00;0.10;;;10.80;99.90;;;;;;5042991;28;20114;-74
2023/03/26 05:38:48;;;;;;;1.23;0.30;;;10.90;99.90;;;;;;5041004;28;20036;-74
2023/03/26 05:41:15;;;;;;;0.60;0.40;;;10.80;99.90;;;;;;5043504;28;20025;-72
2023/03/26 05:43:42;;;;;;;0.80;0.20;;;10.90;99.90;;;;;;5035306;28;20144;-74
2023/03/26 05:46:08;;;;;;;0.93;0.40;;;10.80;99.90;;;;;;5034574;28;20040;-72
2023/03/26 05:48:34;;;;;;;1.75;0.30;;;10.80;99.90;;;;;;5028930;28;20051;-67
2023/03/26 05:51:00;;;;;;;1.25;0.30;;;10.90;99.90;;;;;;5038440;28;20223;-67
2023/03/26 05:53:26;;;;;;;0.55;0.25;;;10.90;99.90;;;;;;5039341;28;20058;-67
2023/03/26 05:55:58;;;;;;;1.38;0.20;;;11.10;99.90;;;;;;5038344;28;20060;-67
2023/03/26 05:58:26;;;;;;;1.40;0.30;;;11.10;99.90;;;;;;5037259;28;20091;-67
2023/03/26 06:01:15;;;;;;;1.25;0.20;;;11.00;99.90;;;;;;5029047;28;20037;-68
2023/03/26 06:03:43;;;;;;;0.98;0.20;;;10.90;99.90;;;;;;5027696;28;20040;-67
2023/03/26 06:06:15;;;;;;;0.73;0.38;;;10.80;99.90;;;;;;5037537;28;20061;-67
2023/03/26 06:08:49;;;;;;;2.85;0.20;;;10.70;99.90;;;;;;5019441;28;20723;-66
2023/03/26 06:11:16;;;;;;;0.80;0.20;;;10.70;99.90;;;;;;5037712;28;20045;-67
2023/03/26 06:13:42;;;;;;;1.23;0.20;;;10.80;99.90;;;;;;5020992;28;20582;-67
2023/03/26 06:16:09;;;;;;;1.00;0.40;;;11.00;99.90;;;;;;5032462;28;20063;-67
2023/03/26 06:18:35;;;;;;;0.70;0.30;;;11.10;99.90;;;;;;5030002;28;20044;-68
2023/03/26 06:21:02;;;;;;;0.57;0.20;;;11.30;99.90;;;;;;5035200;28;20158;-68
2023/03/26 06:23:28;;;;;;;2.67;0.40;;;11.40;99.90;;;;;;5035138;28;20052;-73
2023/03/26 06:25:54;;;;;;;1.95;0.28;;;11.50;99.90;;;;;;5040332;28;20021;-75
2023/03/26 06:28:19;;;;;;;1.17;0.38;;;11.50;99.90;;;;;;5035119;28;20032;-81
2023/03/26 06:30:45;;;;;;;0.60;0.32;;;11.70;99.90;;;;;;5014972;28;20045;-72
2023/03/26 06:33:11;;;;;;;0.63;0.10;;;11.70;99.90;;;;;;5025744;28;20048;-74
2023/03/26 06:35:37;;;;;;;1.02;0.35;;;11.70;99.20;;;;;;5037452;28;20546;-73
2023/03/26 06:38:03;;;;;;;1.33;0.30;;;11.70;99.80;;;;;;5032711;28;20049;-71
2023/03/26 06:40:29;;;;;;;0.55;0.10;;;11.70;99.10;;;;;;5025641;28;20041;-74
2023/03/26 06:42:55;;;;;;;2.22;0.50;;;11.60;99.70;;;;;;5035133;28;20034;-71
2023/03/26 06:45:21;;;;;;;1.60;0.30;;;11.50;99.90;;;;;;5032425;28;20152;-75
2023/03/26 06:47:47;;;;;;;0.55;0.38;;;11.40;99.80;;;;;;5034275;28;20029;-74
2023/03/26 06:50:13;;;;;;;1.23;0.38;;;11.30;99.90;;;;;;5028372;28;20045;-71
2023/03/26 06:52:39;;;;;;;2.17;0.40;;;11.40;99.90;;;;;;5032214;28;20037;-76
2023/03/26 06:55:07;;;;;;;1.25;0.20;;;11.40;99.50;;;;;;5024180;28;20045;-74
2023/03/26 06:57:33;;;;;;;0.80;0.20;;;11.50;99.90;;;;;;5013894;28;20552;-74
2023/03/26 06:59:59;;;;;;;0.55;0.20;;;11.60;99.60;;;;;;5022340;28;20045;-74
2023/03/26 07:02:25;;;;;;;4.20;0.50;;;11.60;99.80;;;;;;5040821;28;20568;-75
2023/03/26 07:04:51;;;;;;;0.75;0.20;;;11.80;98.90;;;;;;5029009;28;20021;-73
2023/03/26 07:07:20;;;;;;;0.45;0.20;;;11.80;98.90;;;;;;5018310;28;20751;-76
2023/03/26 07:09:46;;;;;;;1.63;0.40;;;11.80;99.00;;;;;;5039741;28;20044;-75
2023/03/26 07:12:13;;;;;;;1.50;0.40;;;11.70;98.70;;;;;;5042545;28;20037;-77
2023/03/26 07:14:39;;;;;;;1.17;0.28;;;11.80;99.10;;;;;;5041765;28;20072;-81
2023/03/26 07:17:05;;;;;;;1.17;0.43;;;12.00;99.20;;;;;;5040824;28;21097;-74
2023/03/26 07:19:30;;;;;;;0.93;0.38;;;12.10;98.80;;;;;;5038232;28;20083;-75
2023/03/26 07:21:56;;;;;;;0.20;0.20;;;12.10;98.90;;;;;;5036468;28;20615;-73
2023/03/26 07:24:22;;;;;;;1.55;0.30;;;12.00;98.70;;;;;;5041076;28;20033;-77
2023/03/26 07:27:20;;;;;;;1.30;0.47;;;11.90;98.50;;;;;;5038323;28;20037;-79
2023/03/26 07:30:15;;;;;;;1.98;0.40;;;11.80;98.90;;;;;;5033617;28;20052;-77
2023/03/26 07:32:50;;;;;;;2.50;0.40;;;11.60;99.40;;;;;;5027604;28;20064;-75
2023/03/26 07:35:42;;;;;;;0.65;0.30;;;11.70;99.60;;;;;;5046396;28;20061;-77
2023/03/26 07:38:43;;;;;;;1.07;0.37;;;11.70;99.60;;;;;;5044679;28;20106;-80
2023/03/26 07:41:27;;;;;;;1.17;0.30;;;11.80;99.90;;;;;;5018587;28;20909;-65
2023/03/26 07:43:53;;;;;;;1.38;0.30;;;11.70;99.90;;;;;;5019355;28;20139;-68
2023/03/26 07:46:27;;;;;;;1.85;0.40;;;11.70;99.60;;;;;;5022861;28;20477;-68
2023/03/26 07:48:56;;;;;;;1.33;0.38;;;11.60;99.70;;;;;;5026111;28;20623;-68
2023/03/26 07:51:22;;;;;;;2.42;0.50;;;11.70;99.70;;;;;;5024946;28;20350;-67
2023/03/26 07:53:48;;;;;;;1.70;0.47;;;11.60;99.30;;;;;;5023019;28;20483;-66
2023/03/26 07:56:31;;;;;;;1.33;0.30;;;11.60;99.80;;;;;;5021528;28;20064;-67
2023/03/26 07:59:09;;;;;;;3.13;0.60;;;11.70;99.60;;;;;;5020131;28;20021;-67
2023/03/26 08:01:48;;;;;;;1.58;0.50;;;11.80;99.50;;;;;;5005029;28;20084;-68
2023/03/26 08:04:40;;;;;;;2.17;0.30;;;11.80;98.60;;;;;;5026848;28;20033;-67
2023/03/26 08:07:28;;;;;;;1.08;0.32;;;11.90;98.60;;;;;;5028352;28;20120;-68
2023/03/26 08:10:06;;;;;;;1.73;0.47;;;11.90;98.40;;;;;;5036484;28;20045;-67
2023/03/26 08:12:35;;;;;;;0.40;0.25;;;11.90;97.60;;;;;;5028580;28;20060;-67
2023/03/26 08:15:30;;;;;;;0.25;0.20;;;12.00;98.20;;;;;;5029791;28;20037;-65
2023/03/26 08:18:27;;;;;;;1.00;0.38;;;12.00;97.80;;;;;;5027200;28;20102;-65
2023/03/26 08:21:17;;;;;;;1.13;0.22;;;12.00;97.00;;;;;;5030421;28;20068;-67
2023/03/26 08:23:58;;;;;;;1.30;0.38;;;12.00;97.70;;;;;;5022318;28;20436;-68
2023/03/26 08:26:37;;;;;;;1.30;0.40;;;12.10;97.20;;;;;;5025459;28;20033;-68
2023/03/26 08:29:10;;;;;;;0.75;0.40;;;12.10;97.00;;;;;;5032314;28;20444;-69
2023/03/26 08:31:38;;;;;;;0.75;0.38;;;12.20;97.50;;;;;;5024870;28;20029;-68
2023/03/26 08:34:05;;;;;;;1.63;0.40;;;12.20;97.00;;;;;;5000778;28;20393;-68
2023/03/26 08:36:31;;;;;;;1.20;0.50;;;12.20;97.30;;;;;;5015166;28;20047;-68
2023/03/26 08:38:58;;;;;;;1.55;0.43;;;12.20;97.20;;;;;;5017728;28;20038;-67
2023/03/26 08:41:57;;;;;;;1.17;0.40;;;12.20;97.30;;;;;;5010918;28;20121;-68
2023/03/26 08:44:47;;;;;;;1.95;0.40;;;12.30;97.70;;;;;;5010616;28;20033;-68
2023/03/26 08:47:19;;;;;;;1.50;0.25;;;12.20;97.20;;;;;;5021869;28;20044;-68
2023/03/26 08:50:25;;;;;;;1.35;0.30;;;12.20;97.20;;;;;;5011316;28;20053;-68
2023/03/26 08:52:54;;;;;;;1.30;0.20;;;12.20;97.10;;;;;;5029872;28;20543;-69
2023/03/26 08:55:50;;;;;;;0.98;0.32;;;12.10;97.20;;;;;;5016742;28;20037;-68
2023/03/26 08:58:50;;;;;;;1.42;0.43;;;12.20;97.60;;;;;;5011073;28;20679;-68
2023/03/26 09:01:58;;;;;;;1.58;0.52;;;12.30;98.00;;;;;;5027739;28;20496;-69
2023/03/26 09:04:40;;;;;;;2.05;0.50;;;12.40;97.90;;;;;;5010483;28;20067;-69
2023/03/26 09:07:28;;;;;;;4.50;0.38;;;12.40;97.00;;;;;;5022106;28;20042;-69
2023/03/26 09:10:39;;;;;;;4.10;0.50;;;12.40;96.90;;;;;;5016393;28;20061;-69
2023/03/26 09:13:49;;;;;;;1.58;0.32;;;12.50;97.20;;;;;;4970274;28;20473;-69
2023/03/26 09:16:36;;;;;;;1.15;0.30;;;12.60;97.50;;;;;;5007190;28;20819;-70
2023/03/26 09:19:25;;;;;;;1.95;0.57;;;12.80;96.80;;;;;;5018845;28;20052;-68
2023/03/26 09:22:23;;;;;;;2.60;0.40;;;12.80;96.40;;;;;;5035586;28;20045;-69
2023/03/26 09:25:18;;;;;;;3.03;0.73;;;12.90;97.30;;;;;;5039717;28;20531;-68
2023/03/26 09:28:08;;;;;;;0.40;0.30;;;13.10;97.40;;;;;;5032114;28;20083;-69
2023/03/26 09:31:11;;;;;;;3.75;0.35;;;13.10;95.50;;;;;;5032524;28;20535;-69
2023/03/26 09:33:52;;;;;;;;;;;13.30;96.80;;;;;;5029453;28;20048;-68
2023/03/26 09:36:40;;;;;;;0.88;0.40;;;13.50;97.00;;;;;;5035457;28;19925;-69
2023/03/26 09:39:24;;;;;;;1.67;0.50;;;13.50;94.00;;;;;;5033757;28;20044;-70
2023/03/26 09:42:16;;;;;;;1.02;0.25;;;13.30;94.50;;;;;;5023258;28;20036;-69
2023/03/26 09:45:14;;;;;;;1.10;0.40;;;13.10;95.20;;;;;;5024309;28;20046;-71
2023/03/26 09:47:43;;;;;;;2.03;0.40;;;13.10;94.60;;;;;;5015905;28;20033;-84
2023/03/26 09:50:24;;;;;;;1.50;0.40;;;13.20;96.40;;;;;;5034021;28;20205;-69
2023/03/26 09:53:27;;;;;;;0.73;0.20;;;13.30;93.40;;;;;;5027247;28;20678;-80
2023/03/26 09:56:21;;;;;;;2.75;0.30;;;13.10;94.00;;;;;;5037348;28;20041;-77
2023/03/26 09:59:08;;;;;;;1.27;0.20;;;13.10;93.20;;;;;;5031363;28;20959;-78
2023/03/26 10:02:03;;;;;;;1.17;0.30;;;13.00;92.90;;;;;;5029679;28;20124;-77
2023/03/26 10:04:40;;;;;;;1.58;0.25;;;13.00;91.00;;;;;;5024220;28;20120;-78
2023/03/26 10:07:24;;;;;;;1.42;0.20;;;13.00;91.50;;;;;;5037437;28;20059;-77
2023/03/26 10:10:18;;;;;;;5.80;0.47;;;13.00;92.20;;;;;;5029441;28;21285;-78
2023/03/26 10:12:56;;;;;;;0.55;0.28;;;13.10;93.10;;;;;;5037143;28;20047;-77
2023/03/26 10:15:53;;;;;;;2.33;0.50;;;13.20;93.70;;;;;;5027254;28;20138;-77
2023/03/26 10:18:53;;;;;;;0.65;0.38;;;13.20;94.30;;;;;;5033180;28;20041;-78
2023/03/26 10:21:37;;;;;;;1.35;0.40;;;13.50;93.20;;;;;;5026249;28;20051;-81
2023/03/26 10:24:03;;;;;;;1.65;0.50;;;13.50;93.90;;;;;;5018992;28;20037;-80
2023/03/26 10:26:47;;;;;;;1.63;0.55;;;13.80;93.70;;;;;;5028147;28;20052;-79
2023/03/26 10:29:39;;;;;;;2.63;1.05;;;14.10;93.80;;;;;;5027533;28;20822;-76
2023/03/26 10:32:14;;;;;;;2.95;0.85;;;14.40;92.30;;;;;;5003531;28;20162;-80
2023/03/26 10:35:08;;;;;;;1.55;0.60;;;14.50;92.80;;;;;;5026593;28;20049;-79
2023/03/26 10:37:55;;;;;;;0.43;0.30;;;14.60;92.00;;;;;;5020688;28;20040;-79
2023/03/26 10:40:42;;;;;;;1.77;0.45;;;14.90;91.80;;;;;;5032649;28;20033;-75
2023/03/26 10:43:26;;;;;;;1.52;0.47;;;15.00;91.30;;;;;;5005249;28;20033;-78
2023/03/26 10:46:06;;;;;;;0.52;0.20;;;15.20;90.20;;;;;;5026743;28;20225;-78
2023/03/26 10:48:44;;;;;;;1.75;1.23;;;15.20;87.60;;;;;;5028091;28;20070;-75
2023/03/26 10:51:21;;;;;;;1.38;0.50;;;14.80;88.00;;;;;;5030164;28;20676;-76
2023/03/26 10:54:10;;;;;;;0.57;0.30;;;14.50;87.20;;;;;;5028918;28;20030;-79
2023/03/26 10:56:49;;;;;;;0.77;0.32;;;14.20;88.10;;;;;;5026852;28;20063;-77
2023/03/26 10:59:17;;;;;;;0.30;0.30;;;14.20;90.60;;;;;;5024009;28;20052;-75
2023/03/26 11:02:02;;;;;;;1.55;0.60;;;14.30;90.40;;;;;;5010205;28;20064;-75
2023/03/26 11:04:40;;;;;;;1.25;0.32;;;14.30;90.80;;;;;;4990789;28;20037;-74
2023/03/26 11:07:28;;;;;;;1.65;0.60;;;14.60;89.50;;;;;;5029438;28;20060;-75
2023/03/26 11:10:06;;;;;;;2.95;0.47;;;14.80;90.10;;;;;;5031175;28;20049;-69
2023/03/26 11:12:51;;;;;;;1.20;0.25;;;15.10;89.60;;;;;;5027230;28;20061;-69
2023/03/26 11:16:06;;;;;;;1.90;0.43;;;15.30;85.40;;;;;;5032443;28;20500;-69
2023/03/26 11:18:35;;;;;;;1.10;0.38;;;15.20;86.90;;;;;;5016922;28;20120;-70
2023/03/26 11:21:14;;;;;;;1.90;0.45;;;15.20;88.90;;;;;;5026840;28;20532;-70
2023/03/26 11:24:05;;;;;;;1.95;0.30;;;15.30;87.10;;;;;;5027392;28;20098;-71
2023/03/26 11:26:55;;;;;;;1.17;0.40;;;15.40;85.90;;;;;;5021204;28;20571;-67
2023/03/26 11:29:41;;;;;;;1.02;0.50;;;15.30;86.30;;;;;;5025487;28;20702;-69
2023/03/26 11:32:12;;;;;;;0.93;0.30;;;15.40;88.50;;;;;;5032299;28;20046;-70
2023/03/26 11:34:58;;;;;;;0.57;0.22;;;15.60;85.20;;;;;;5016252;28;20532;-71
2023/03/26 11:37:32;;;;;;;0.85;0.30;;;15.60;81.20;;;;;;5031866;28;20398;-70
2023/03/26 11:40:05;;;;;;;1.73;0.65;;;15.50;80.30;;;;;;5031666;28;20121;-69
2023/03/26 11:42:31;;;;;;;0.50;0.38;;;15.40;82.20;;;;;;5005243;28;20048;-68
2023/03/26 11:45:04;;;;;;;0.85;0.30;;;15.50;83.20;;;;;;5029984;28;20044;-69
2023/03/26 11:47:39;;;;;;;1.48;0.43;;;15.50;83.50;;;;;;5020380;28;20685;-68
2023/03/26 11:50:07;;;;;;;7.80;0.50;;;15.80;80.30;;;;;;5010713;28;20045;-69
2023/03/26 11:52:33;;;;;;;1.05;0.30;;;15.90;75.80;;;;;;5019278;28;20036;-69
2023/03/26 11:54:58;;;;;;;1.10;0.30;;;15.90;75.70;;;;;;5027472;28;20037;-69
2023/03/26 11:57:33;;;;;;;0.65;0.30;;;15.90;76.70;;;;;;5013750;28;20044;-70
2023/03/26 12:00:20;;;;;;;1.15;0.50;;;15.90;75.90;;;;;;5023588;28;20068;-73
2023/03/26 12:02:47;;;;;;;1.25;0.32;;;16.10;76.60;;;;;;5011183;28;20760;-71
2023/03/26 12:05:25;;;;;;;0.95;0.20;;;16.30;76.20;;;;;;5004720;28;20103;-69
2023/03/26 12:07:59;;;;;;;1.52;0.30;;;16.30;74.10;;;;;;5011684;28;20036;-69
2023/03/26 12:10:27;;;;;;;1.23;0.25;;;16.20;74.70;;;;;;5021767;28;20048;-80
2023/03/26 12:12:57;;;;;;;2.50;0.70;;;15.90;77.00;;;;;;5024451;28;20037;-79
2023/03/26 12:15:25;;;;;;;0.88;0.50;;;15.70;75.90;;;;;;5014244;28;20043;-77
2023/03/26 12:17:55;;;;;;;1.40;0.40;;;15.80;78.90;;;;;;4991022;28;20807;-80
2023/03/26 12:20:23;;;;;;;1.08;0.40;;;16.00;75.80;;;;;;5023480;28;20021;-69
2023/03/26 12:22:51;;;;;;;3.33;0.73;;;16.20;75.30;;;;;;5013246;28;20099;-69
2023/03/26 12:25:22;;;;;;;4.82;0.80;;;16.20;75.40;;;;;;5019487;28;20036;-81
2023/03/26 12:28:02;;;;;;;4.95;0.75;;;16.20;74.60;;;;;;5018087;28;20804;-69
2023/03/26 12:30:32;;;;;;;1.38;0.68;;;16.10;74.90;;;;;;5018589;28;20042;-69
2023/03/26 12:33:24;;;;;;;0.80;0.50;;;16.20;75.50;;;;;;5032073;28;20112;-70
2023/03/26 12:35:51;;;;;;;1.17;0.50;;;16.20;75.90;;;;;;5032096;28;20029;-70
2023/03/26 12:38:32;;;;;;;0.30;0.30;;;16.40;74.50;;;;;;5032393;28;20109;-70
2023/03/26 12:41:06;;;;;;;1.55;0.20;;;16.40;73.30;;;;;;5026695;28;20029;-69
2023/03/26 12:43:50;;;;;;;4.47;0.68;;;16.50;73.30;;;;;;5032174;28;20135;-68
2023/03/26 12:46:34;;;;;;;0.50;0.30;;;16.60;74.20;;;;;;5033605;28;20025;-74
2023/03/26 12:49:03;;;;;;;1.10;0.32;;;16.70;76.10;;;;;;5032333;28;20053;-74
2023/03/26 12:51:50;;;;;;;0.35;0.20;;;16.70;70.60;;;;;;5022777;28;20047;-72
2023/03/26 12:54:31;;;;;;;0.77;0.32;;;16.60;71.90;;;;;;5037466;28;20033;-73
2023/03/26 12:57:21;;;;;;;1.35;0.45;;;16.40;70.30;;;;;;5038086;28;20033;-74
2023/03/26 12:59:56;;;;;;;0.50;0.38;;;16.30;71.70;;;;;;5037333;28;20036;-74
2023/03/26 13:02:34;;;;;;;0.60;0.38;;;16.40;73.70;;;;;;5016692;28;20045;-73
2023/03/26 13:05:00;;;;;;;0.63;0.25;;;16.50;71.20;;;;;;5041183;28;20021;-68
2023/03/26 13:07:47;;;;;;;0.38;0.28;;;16.40;68.00;;;;;;5038980;28;20397;-75
2023/03/26 13:10:29;;;;;;;0.88;0.28;;;16.30;69.40;;;;;;5033827;28;20053;-75
2023/03/26 13:13:32;;;;;;;0.25;0.20;;;16.20;69.10;;;;;;5040422;28;21067;-78
2023/03/26 13:16:15;;;;;;;0.80;0.40;;;16.10;69.70;;;;;;5038459;28;20029;-76
2023/03/26 13:18:51;;;;;;;0.47;0.20;;;16.30;70.30;;;;;;5039761;28;20067;-75
2023/03/26 13:21:29;;;;;;;0.40;0.17;;;16.50;71.10;;;;;;5020245;28;20052;-69
2023/03/26 13:24:26;;;;;;;0.30;0.20;;;16.70;69.40;;;;;;5037800;28;20028;-69